sensor_id;sensor_type;location;lat;lon;timestamp;P1;durP1;ratioP1;P2;durP2;ratioP2
1925;SDS011;964;42.606;23.588;2022-12-07T00:00:49;18.13;;;10.00;;
1925;SDS011;964;42.606;23.588;2022-12-07T00:03:16;18.93;;;9.40;;
1925;SDS011;964;42.606;23.588;2022-12-07T00:05:42;19.60;;;8.90;;
1925;SDS011;964;42.606;23.588;2022-12-07T00:08:09;18.83;;;9.67;;
1925;SDS011;964;42.606;23.588;2022-12-07T00:10:37;19.93;;;10.03;;
1925;SDS011;964;42.606;23.588;2022-12-07T00:13:04;13.93;;;9.17;;
1925;SDS011;964;42.606;23.588;2022-12-07T00:15:30;19.30;;;11.10;;
1925;SDS011;964;42.606;23.588;2022-12-07T00:17:59;26.20;;;11.90;;
1925;SDS011;964;42.606;23.588;2022-12-07T00:20:26;24.67;;;10.53;;
1925;SDS011;964;42.606;23.588;2022-12-07T00:22:53;16.13;;;10.03;;
1925;SDS011;964;42.606;23.588;2022-12-07T00:25:19;22.20;;;10.17;;
1925;SDS011;964;42.606;23.588;2022-12-07T00:27:47;19.07;;;10.60;;
1925;SDS011;964;42.606;23.588;2022-12-07T00:30:14;21.03;;;10.63;;
1925;SDS011;964;42.606;23.588;2022-12-07T00:32:41;18.53;;;10.10;;
1925;SDS011;964;42.606;23.588;2022-12-07T00:35:08;22.33;;;11.17;;
1925;SDS011;964;42.606;23.588;2022-12-07T00:37:34;18.77;;;10.30;;
1925;SDS011;964;42.606;23.588;2022-12-07T00:40:01;23.30;;;10.67;;
1925;SDS011;964;42.606;23.588;2022-12-07T00:42:28;24.87;;;11.23;;
1925;SDS011;964;42.606;23.588;2022-12-07T00:44:56;19.27;;;10.93;;
1925;SDS011;964;42.606;23.588;2022-12-07T00:47:23;18.37;;;10.63;;
1925;SDS011;964;42.606;23.588;2022-12-07T00:49:50;20.30;;;9.57;;
1925;SDS011;964;42.606;23.588;2022-12-07T00:52:16;21.90;;;10.57;;
1925;SDS011;964;42.606;23.588;2022-12-07T00:54:43;21.30;;;9.93;;
1925;SDS011;964;42.606;23.588;2022-12-07T00:57:10;24.97;;;11.70;;
1925;SDS011;964;42.606;23.588;2022-12-07T00:59:36;19.77;;;9.90;;
1925;SDS011;964;42.606;23.588;2022-12-07T01:02:04;19.10;;;10.97;;
1925;SDS011;964;42.606;23.588;2022-12-07T01:04:33;20.23;;;11.30;;
1925;SDS011;964;42.606;23.588;2022-12-07T01:07:00;22.83;;;11.63;;
1925;SDS011;964;42.606;23.588;2022-12-07T01:09:26;22.40;;;10.80;;
1925;SDS011;964;42.606;23.588;2022-12-07T01:11:53;18.70;;;10.40;;
1925;SDS011;964;42.606;23.588;2022-12-07T01:14:20;20.70;;;9.90;;
1925;SDS011;964;42.606;23.588;2022-12-07T01:16:46;20.00;;;9.80;;
1925;SDS011;964;42.606;23.588;2022-12-07T01:19:15;21.13;;;11.00;;
1925;SDS011;964;42.606;23.588;2022-12-07T01:21:41;16.60;;;10.03;;
1925;SDS011;964;42.606;23.588;2022-12-07T01:24:09;17.60;;;9.40;;
1925;SDS011;964;42.606;23.588;2022-12-07T01:26:37;28.30;;;14.17;;
1925;SDS011;964;42.606;23.588;2022-12-07T01:29:05;40.13;;;15.93;;
1925;SDS011;964;42.606;23.588;2022-12-07T01:31:31;31.93;;;14.00;;
1925;SDS011;964;42.606;23.588;2022-12-07T01:33:59;29.93;;;14.37;;
1925;SDS011;964;42.606;23.588;2022-12-07T01:36:28;27.67;;;12.53;;
1925;SDS011;964;42.606;23.588;2022-12-07T01:38:56;26.60;;;13.20;;
1925;SDS011;964;42.606;23.588;2022-12-07T01:41:24;27.13;;;14.10;;
1925;SDS011;964;42.606;23.588;2022-12-07T01:44:09;24.73;;;12.70;;
1925;SDS011;964;42.606;23.588;2022-12-07T01:46:40;26.57;;;11.83;;
1925;SDS011;964;42.606;23.588;2022-12-07T01:49:08;31.50;;;12.37;;
1925;SDS011;964;42.606;23.588;2022-12-07T01:51:40;26.27;;;12.00;;
1925;SDS011;964;42.606;23.588;2022-12-07T01:54:08;22.33;;;10.33;;
1925;SDS011;964;42.606;23.588;2022-12-07T01:56:37;27.03;;;10.80;;
1925;SDS011;964;42.606;23.588;2022-12-07T01:59:07;15.57;;;9.80;;
1925;SDS011;964;42.606;23.588;2022-12-07T02:01:34;22.83;;;10.40;;
1925;SDS011;964;42.606;23.588;2022-12-07T02:04:01;16.87;;;10.10;;
1925;SDS011;964;42.606;23.588;2022-12-07T02:06:28;20.00;;;11.37;;
1925;SDS011;964;42.606;23.588;2022-12-07T02:08:57;17.87;;;11.50;;
1925;SDS011;964;42.606;23.588;2022-12-07T02:11:24;17.17;;;9.73;;
1925;SDS011;964;42.606;23.588;2022-12-07T02:13:51;24.40;;;11.80;;
1925;SDS011;964;42.606;23.588;2022-12-07T02:16:23;26.83;;;14.27;;
1925;SDS011;964;42.606;23.588;2022-12-07T02:19:09;23.83;;;12.37;;
1925;SDS011;964;42.606;23.588;2022-12-07T02:21:57;23.77;;;13.60;;
1925;SDS011;964;42.606;23.588;2022-12-07T02:24:34;18.73;;;10.03;;
1925;SDS011;964;42.606;23.588;2022-12-07T02:27:32;20.00;;;9.50;;
1925;SDS011;964;42.606;23.588;2022-12-07T02:30:06;17.63;;;10.50;;
1925;SDS011;964;42.606;23.588;2022-12-07T02:32:39;21.37;;;11.90;;
1925;SDS011;964;42.606;23.588;2022-12-07T02:35:10;16.10;;;8.97;;
1925;SDS011;964;42.606;23.588;2022-12-07T02:37:42;22.70;;;11.37;;
1925;SDS011;964;42.606;23.588;2022-12-07T02:40:16;21.67;;;12.23;;
1925;SDS011;964;42.606;23.588;2022-12-07T02:42:46;18.67;;;10.17;;
1925;SDS011;964;42.606;23.588;2022-12-07T02:45:20;20.63;;;12.10;;
1925;SDS011;964;42.606;23.588;2022-12-07T02:47:48;16.70;;;9.70;;
1925;SDS011;964;42.606;23.588;2022-12-07T02:50:19;21.40;;;11.07;;
1925;SDS011;964;42.606;23.588;2022-12-07T02:52:47;20.20;;;11.13;;
1925;SDS011;964;42.606;23.588;2022-12-07T02:55:14;20.67;;;11.97;;
1925;SDS011;964;42.606;23.588;2022-12-07T02:57:54;23.00;;;11.10;;
1925;SDS011;964;42.606;23.588;2022-12-07T03:00:34;18.60;;;10.30;;
1925;SDS011;964;42.606;23.588;2022-12-07T03:03:11;17.83;;;10.93;;
1925;SDS011;964;42.606;23.588;2022-12-07T03:05:44;20.33;;;11.27;;
1925;SDS011;964;42.606;23.588;2022-12-07T03:08:21;22.10;;;10.30;;
1925;SDS011;964;42.606;23.588;2022-12-07T03:10:55;25.87;;;11.37;;
1925;SDS011;964;42.606;23.588;2022-12-07T03:13:25;21.57;;;11.03;;
1925;SDS011;964;42.606;23.588;2022-12-07T03:15:58;17.90;;;10.90;;
1925;SDS011;964;42.606;23.588;2022-12-07T03:18:32;17.77;;;10.00;;
1925;SDS011;964;42.606;23.588;2022-12-07T03:21:04;19.30;;;10.13;;
1925;SDS011;964;42.606;23.588;2022-12-07T03:23:33;20.07;;;10.17;;
1925;SDS011;964;42.606;23.588;2022-12-07T03:26:01;18.00;;;11.33;;
1925;SDS011;964;42.606;23.588;2022-12-07T03:28:31;18.57;;;9.57;;
1925;SDS011;964;42.606;23.588;2022-12-07T03:31:05;23.30;;;11.10;;
1925;SDS011;964;42.606;23.588;2022-12-07T03:33:39;24.47;;;10.73;;
1925;SDS011;964;42.606;23.588;2022-12-07T03:36:14;25.63;;;10.83;;
1925;SDS011;964;42.606;23.588;2022-12-07T03:38:46;22.57;;;11.40;;
1925;SDS011;964;42.606;23.588;2022-12-07T03:41:16;18.40;;;11.07;;
1925;SDS011;964;42.606;23.588;2022-12-07T03:43:48;24.20;;;11.83;;
1925;SDS011;964;42.606;23.588;2022-12-07T03:46:19;20.70;;;11.00;;
1925;SDS011;964;42.606;23.588;2022-12-07T03:48:53;18.70;;;11.47;;
1925;SDS011;964;42.606;23.588;2022-12-07T03:51:24;26.40;;;13.20;;
1925;SDS011;964;42.606;23.588;2022-12-07T03:53:59;33.67;;;16.10;;
1925;SDS011;964;42.606;23.588;2022-12-07T03:56:31;32.23;;;15.83;;
1925;SDS011;964;42.606;23.588;2022-12-07T03:58:59;32.10;;;16.20;;
1925;SDS011;964;42.606;23.588;2022-12-07T04:01:27;31.30;;;14.07;;
1925;SDS011;964;42.606;23.588;2022-12-07T04:03:54;34.27;;;15.60;;
1925;SDS011;964;42.606;23.588;2022-12-07T04:06:21;22.10;;;12.50;;
1925;SDS011;964;42.606;23.588;2022-12-07T04:08:47;25.33;;;12.27;;
1925;SDS011;964;42.606;23.588;2022-12-07T04:11:14;22.37;;;12.07;;
1925;SDS011;964;42.606;23.588;2022-12-07T04:13:41;24.57;;;12.93;;
1925;SDS011;964;42.606;23.588;2022-12-07T04:16:25;33.43;;;13.40;;
1925;SDS011;964;42.606;23.588;2022-12-07T04:18:53;22.00;;;11.77;;
1925;SDS011;964;42.606;23.588;2022-12-07T04:21:19;17.30;;;11.40;;
1925;SDS011;964;42.606;23.588;2022-12-07T04:23:46;19.10;;;11.00;;
1925;SDS011;964;42.606;23.588;2022-12-07T04:26:13;18.67;;;11.73;;
1925;SDS011;964;42.606;23.588;2022-12-07T04:28:39;19.03;;;10.77;;
1925;SDS011;964;42.606;23.588;2022-12-07T04:31:06;22.87;;;11.00;;
1925;SDS011;964;42.606;23.588;2022-12-07T04:33:33;21.03;;;10.57;;
1925;SDS011;964;42.606;23.588;2022-12-07T04:36:01;17.60;;;10.70;;
1925;SDS011;964;42.606;23.588;2022-12-07T04:38:27;21.90;;;9.47;;
1925;SDS011;964;42.606;23.588;2022-12-07T04:40:54;17.67;;;11.30;;
1925;SDS011;964;42.606;23.588;2022-12-07T04:43:20;23.90;;;10.60;;
1925;SDS011;964;42.606;23.588;2022-12-07T04:45:47;17.97;;;10.10;;
1925;SDS011;964;42.606;23.588;2022-12-07T04:48:15;24.50;;;10.20;;
1925;SDS011;964;42.606;23.588;2022-12-07T04:50:42;24.33;;;10.67;;
1925;SDS011;964;42.606;23.588;2022-12-07T04:53:10;18.30;;;10.03;;
1925;SDS011;964;42.606;23.588;2022-12-07T04:55:37;16.20;;;10.43;;
1925;SDS011;964;42.606;23.588;2022-12-07T04:58:03;19.60;;;10.40;;
1925;SDS011;964;42.606;23.588;2022-12-07T05:00:30;20.20;;;10.90;;
1925;SDS011;964;42.606;23.588;2022-12-07T05:02:56;19.00;;;10.00;;
1925;SDS011;964;42.606;23.588;2022-12-07T05:05:23;26.83;;;10.17;;
1925;SDS011;964;42.606;23.588;2022-12-07T05:07:50;22.07;;;10.77;;
1925;SDS011;964;42.606;23.588;2022-12-07T05:10:18;22.57;;;11.30;;
1925;SDS011;964;42.606;23.588;2022-12-07T05:12:45;25.87;;;13.80;;
1925;SDS011;964;42.606;23.588;2022-12-07T05:15:12;23.60;;;11.73;;
1925;SDS011;964;42.606;23.588;2022-12-07T05:17:39;30.17;;;12.00;;
1925;SDS011;964;42.606;23.588;2022-12-07T05:20:07;38.50;;;14.83;;
1925;SDS011;964;42.606;23.588;2022-12-07T05:22:34;33.13;;;15.90;;
1925;SDS011;964;42.606;23.588;2022-12-07T05:25:01;35.37;;;13.70;;
1925;SDS011;964;42.606;23.588;2022-12-07T05:27:29;25.70;;;12.23;;
1925;SDS011;964;42.606;23.588;2022-12-07T05:29:56;19.37;;;11.30;;
1925;SDS011;964;42.606;23.588;2022-12-07T05:32:22;20.30;;;12.63;;
1925;SDS011;964;42.606;23.588;2022-12-07T05:34:49;26.77;;;13.20;;
1925;SDS011;964;42.606;23.588;2022-12-07T05:37:15;22.37;;;11.93;;
1925;SDS011;964;42.606;23.588;2022-12-07T05:39:42;20.90;;;10.97;;
1925;SDS011;964;42.606;23.588;2022-12-07T05:42:09;18.23;;;10.80;;
1925;SDS011;964;42.606;23.588;2022-12-07T05:44:40;20.73;;;11.00;;
1925;SDS011;964;42.606;23.588;2022-12-07T05:47:08;21.80;;;9.90;;
1925;SDS011;964;42.606;23.588;2022-12-07T05:49:35;16.90;;;10.00;;
1925;SDS011;964;42.606;23.588;2022-12-07T05:52:02;18.60;;;11.30;;
1925;SDS011;964;42.606;23.588;2022-12-07T05:54:29;19.33;;;9.80;;
1925;SDS011;964;42.606;23.588;2022-12-07T05:56:56;15.77;;;9.37;;
1925;SDS011;964;42.606;23.588;2022-12-07T05:59:23;17.03;;;9.20;;
1925;SDS011;964;42.606;23.588;2022-12-07T06:01:50;18.73;;;9.43;;
1925;SDS011;964;42.606;23.588;2022-12-07T06:04:18;19.73;;;9.30;;
1925;SDS011;964;42.606;23.588;2022-12-07T06:06:45;16.57;;;10.47;;
1925;SDS011;964;42.606;23.588;2022-12-07T06:09:12;25.00;;;11.33;;
1925;SDS011;964;42.606;23.588;2022-12-07T06:11:39;18.87;;;9.57;;
1925;SDS011;964;42.606;23.588;2022-12-07T06:14:24;29.33;;;12.60;;
1925;SDS011;964;42.606;23.588;2022-12-07T06:16:52;52.13;;;25.27;;
1925;SDS011;964;42.606;23.588;2022-12-07T06:19:18;34.03;;;15.87;;
1925;SDS011;964;42.606;23.588;2022-12-07T06:21:45;22.47;;;13.00;;
1925;SDS011;964;42.606;23.588;2022-12-07T06:24:13;31.50;;;12.63;;
1925;SDS011;964;42.606;23.588;2022-12-07T06:26:41;28.23;;;13.07;;
1925;SDS011;964;42.606;23.588;2022-12-07T06:29:08;31.40;;;15.13;;
1925;SDS011;964;42.606;23.588;2022-12-07T06:31:35;55.57;;;26.67;;
1925;SDS011;964;42.606;23.588;2022-12-07T06:34:04;28.27;;;13.33;;
1925;SDS011;964;42.606;23.588;2022-12-07T06:36:31;22.80;;;12.10;;
1925;SDS011;964;42.606;23.588;2022-12-07T06:38:59;30.47;;;15.57;;
1925;SDS011;964;42.606;23.588;2022-12-07T06:41:26;31.40;;;17.80;;
1925;SDS011;964;42.606;23.588;2022-12-07T06:43:53;42.70;;;26.00;;
1925;SDS011;964;42.606;23.588;2022-12-07T06:46:20;46.00;;;23.80;;
1925;SDS011;964;42.606;23.588;2022-12-07T06:48:46;57.10;;;31.37;;
1925;SDS011;964;42.606;23.588;2022-12-07T06:51:14;41.23;;;21.93;;
1925;SDS011;964;42.606;23.588;2022-12-07T06:53:41;52.80;;;24.67;;
1925;SDS011;964;42.606;23.588;2022-12-07T06:56:08;39.27;;;17.90;;
1925;SDS011;964;42.606;23.588;2022-12-07T06:58:34;41.33;;;19.77;;
1925;SDS011;964;42.606;23.588;2022-12-07T07:01:01;27.80;;;14.53;;
1925;SDS011;964;42.606;23.588;2022-12-07T07:03:28;84.90;;;29.70;;
1925;SDS011;964;42.606;23.588;2022-12-07T07:05:55;75.90;;;27.80;;
1925;SDS011;964;42.606;23.588;2022-12-07T07:08:23;73.23;;;29.97;;
1925;SDS011;964;42.606;23.588;2022-12-07T07:10:49;78.20;;;36.10;;
1925;SDS011;964;42.606;23.588;2022-12-07T07:13:17;54.30;;;27.47;;
1925;SDS011;964;42.606;23.588;2022-12-07T07:15:43;49.37;;;29.50;;
1925;SDS011;964;42.606;23.588;2022-12-07T07:18:10;51.00;;;27.47;;
1925;SDS011;964;42.606;23.588;2022-12-07T07:20:37;47.70;;;25.17;;
1925;SDS011;964;42.606;23.588;2022-12-07T07:23:04;28.77;;;16.67;;
1925;SDS011;964;42.606;23.588;2022-12-07T07:25:33;28.07;;;15.07;;
1925;SDS011;964;42.606;23.588;2022-12-07T07:28:00;17.80;;;10.30;;
1925;SDS011;964;42.606;23.588;2022-12-07T07:30:27;17.60;;;9.20;;
1925;SDS011;964;42.606;23.588;2022-12-07T07:32:55;17.57;;;10.47;;
1925;SDS011;964;42.606;23.588;2022-12-07T07:35:22;19.60;;;10.50;;
1925;SDS011;964;42.606;23.588;2022-12-07T07:37:49;24.30;;;16.63;;
1925;SDS011;964;42.606;23.588;2022-12-07T07:40:16;27.07;;;15.83;;
1925;SDS011;964;42.606;23.588;2022-12-07T07:42:46;29.47;;;15.60;;
1925;SDS011;964;42.606;23.588;2022-12-07T07:45:13;22.57;;;13.47;;
1925;SDS011;964;42.606;23.588;2022-12-07T07:47:40;27.87;;;14.93;;
1925;SDS011;964;42.606;23.588;2022-12-07T07:50:07;23.30;;;14.00;;
1925;SDS011;964;42.606;23.588;2022-12-07T07:52:34;37.27;;;13.50;;
1925;SDS011;964;42.606;23.588;2022-12-07T07:55:01;24.90;;;15.00;;
1925;SDS011;964;42.606;23.588;2022-12-07T07:57:29;21.40;;;12.93;;
1925;SDS011;964;42.606;23.588;2022-12-07T07:59:57;21.13;;;12.27;;
1925;SDS011;964;42.606;23.588;2022-12-07T08:02:23;21.87;;;12.50;;
1925;SDS011;964;42.606;23.588;2022-12-07T08:04:50;25.57;;;13.30;;
1925;SDS011;964;42.606;23.588;2022-12-07T08:07:17;27.30;;;13.70;;
1925;SDS011;964;42.606;23.588;2022-12-07T08:09:43;23.50;;;13.63;;
1925;SDS011;964;42.606;23.588;2022-12-07T08:12:10;23.83;;;13.63;;
1925;SDS011;964;42.606;23.588;2022-12-07T08:14:37;25.33;;;14.50;;
1925;SDS011;964;42.606;23.588;2022-12-07T08:17:05;21.67;;;12.97;;
1925;SDS011;964;42.606;23.588;2022-12-07T08:19:31;18.90;;;10.97;;
1925;SDS011;964;42.606;23.588;2022-12-07T08:21:59;24.80;;;12.20;;
1925;SDS011;964;42.606;23.588;2022-12-07T08:24:26;20.87;;;12.50;;
1925;SDS011;964;42.606;23.588;2022-12-07T08:26:53;22.47;;;12.00;;
1925;SDS011;964;42.606;23.588;2022-12-07T08:29:19;18.17;;;10.63;;
1925;SDS011;964;42.606;23.588;2022-12-07T08:31:46;23.50;;;12.17;;
1925;SDS011;964;42.606;23.588;2022-12-07T08:34:14;19.90;;;12.17;;
1925;SDS011;964;42.606;23.588;2022-12-07T08:36:41;19.33;;;11.40;;
1925;SDS011;964;42.606;23.588;2022-12-07T08:39:08;23.47;;;12.87;;
1925;SDS011;964;42.606;23.588;2022-12-07T08:41:35;17.43;;;11.17;;
1925;SDS011;964;42.606;23.588;2022-12-07T08:44:02;16.10;;;9.83;;
1925;SDS011;964;42.606;23.588;2022-12-07T08:46:30;16.73;;;10.60;;
1925;SDS011;964;42.606;23.588;2022-12-07T08:49:02;21.20;;;10.97;;
1925;SDS011;964;42.606;23.588;2022-12-07T08:51:33;19.03;;;12.80;;
1925;SDS011;964;42.606;23.588;2022-12-07T08:54:00;22.10;;;12.50;;
1925;SDS011;964;42.606;23.588;2022-12-07T08:56:30;21.33;;;12.67;;
1925;SDS011;964;42.606;23.588;2022-12-07T08:58:57;21.07;;;13.20;;
1925;SDS011;964;42.606;23.588;2022-12-07T09:01:24;20.50;;;12.00;;
1925;SDS011;964;42.606;23.588;2022-12-07T09:03:50;23.43;;;12.20;;
1925;SDS011;964;42.606;23.588;2022-12-07T09:06:17;22.80;;;13.07;;
1925;SDS011;964;42.606;23.588;2022-12-07T09:08:47;22.63;;;13.70;;
1925;SDS011;964;42.606;23.588;2022-12-07T09:11:17;20.60;;;11.90;;
1925;SDS011;964;42.606;23.588;2022-12-07T09:13:44;20.47;;;11.70;;
1925;SDS011;964;42.606;23.588;2022-12-07T09:16:10;21.03;;;12.37;;
1925;SDS011;964;42.606;23.588;2022-12-07T09:18:37;17.30;;;10.70;;
1925;SDS011;964;42.606;23.588;2022-12-07T09:21:04;24.77;;;13.10;;
1925;SDS011;964;42.606;23.588;2022-12-07T09:23:31;24.40;;;12.97;;
1925;SDS011;964;42.606;23.588;2022-12-07T09:26:00;19.90;;;12.60;;
1925;SDS011;964;42.606;23.588;2022-12-07T09:28:26;25.67;;;12.70;;
1925;SDS011;964;42.606;23.588;2022-12-07T09:30:53;17.23;;;11.10;;
1925;SDS011;964;42.606;23.588;2022-12-07T09:33:20;23.37;;;15.67;;
1925;SDS011;964;42.606;23.588;2022-12-07T09:35:46;16.80;;;11.40;;
1925;SDS011;964;42.606;23.588;2022-12-07T09:38:14;14.50;;;7.60;;
1925;SDS011;964;42.606;23.588;2022-12-07T09:40:41;11.93;;;9.37;;
1925;SDS011;964;42.606;23.588;2022-12-07T09:43:12;14.23;;;9.27;;
1925;SDS011;964;42.606;23.588;2022-12-07T09:45:40;18.90;;;11.67;;
1925;SDS011;964;42.606;23.588;2022-12-07T09:48:10;15.00;;;9.70;;
1925;SDS011;964;42.606;23.588;2022-12-07T09:50:44;16.30;;;10.20;;
1925;SDS011;964;42.606;23.588;2022-12-07T09:53:13;16.53;;;10.73;;
1925;SDS011;964;42.606;23.588;2022-12-07T09:55:42;21.43;;;11.50;;
1925;SDS011;964;42.606;23.588;2022-12-07T09:58:10;18.27;;;11.27;;
1925;SDS011;964;42.606;23.588;2022-12-07T10:00:45;19.73;;;11.27;;
1925;SDS011;964;42.606;23.588;2022-12-07T10:03:12;20.23;;;12.83;;
1925;SDS011;964;42.606;23.588;2022-12-07T10:05:40;17.90;;;11.00;;
1925;SDS011;964;42.606;23.588;2022-12-07T10:08:10;19.20;;;11.17;;
1925;SDS011;964;42.606;23.588;2022-12-07T10:10:38;18.77;;;11.67;;
1925;SDS011;964;42.606;23.588;2022-12-07T10:13:05;25.83;;;13.60;;
1925;SDS011;964;42.606;23.588;2022-12-07T10:15:45;23.43;;;13.17;;
1925;SDS011;964;42.606;23.588;2022-12-07T10:18:28;20.67;;;12.10;;
1925;SDS011;964;42.606;23.588;2022-12-07T10:21:00;18.20;;;10.97;;
1925;SDS011;964;42.606;23.588;2022-12-07T10:23:34;21.30;;;11.03;;
1925;SDS011;964;42.606;23.588;2022-12-07T10:26:12;14.27;;;10.00;;
1925;SDS011;964;42.606;23.588;2022-12-07T10:28:46;13.23;;;8.83;;
1925;SDS011;964;42.606;23.588;2022-12-07T10:31:16;15.53;;;9.10;;
1925;SDS011;964;42.606;23.588;2022-12-07T10:33:54;20.73;;;10.90;;
1925;SDS011;964;42.606;23.588;2022-12-07T10:36:24;14.70;;;10.17;;
1925;SDS011;964;42.606;23.588;2022-12-07T10:38:53;16.23;;;10.87;;
1925;SDS011;964;42.606;23.588;2022-12-07T10:41:25;16.83;;;10.10;;
1925;SDS011;964;42.606;23.588;2022-12-07T10:43:53;11.43;;;7.87;;
1925;SDS011;964;42.606;23.588;2022-12-07T10:49:40;13.37;;;8.37;;
1925;SDS011;964;42.606;23.588;2022-12-07T10:52:32;15.23;;;9.60;;
1925;SDS011;964;42.606;23.588;2022-12-07T10:55:21;15.33;;;9.20;;
1925;SDS011;964;42.606;23.588;2022-12-07T11:00:49;15.37;;;8.60;;
1925;SDS011;964;42.606;23.588;2022-12-07T11:03:31;10.23;;;7.73;;
1925;SDS011;964;42.606;23.588;2022-12-07T11:06:10;9.40;;;7.43;;
1925;SDS011;964;42.606;23.588;2022-12-07T11:09:02;17.53;;;9.70;;
1925;SDS011;964;42.606;23.588;2022-12-07T11:11:42;10.57;;;8.40;;
1925;SDS011;964;42.606;23.588;2022-12-07T11:14:15;12.27;;;7.40;;
1925;SDS011;964;42.606;23.588;2022-12-07T11:16:55;14.67;;;7.80;;
1925;SDS011;964;42.606;23.588;2022-12-07T11:19:31;10.37;;;7.53;;
1925;SDS011;964;42.606;23.588;2022-12-07T11:22:06;14.13;;;8.77;;
1925;SDS011;964;42.606;23.588;2022-12-07T11:24:40;11.90;;;7.87;;
1925;SDS011;964;42.606;23.588;2022-12-07T11:27:18;11.63;;;8.03;;
1925;SDS011;964;42.606;23.588;2022-12-07T11:30:00;10.77;;;7.63;;
1925;SDS011;964;42.606;23.588;2022-12-07T11:32:47;13.83;;;8.70;;
1925;SDS011;964;42.606;23.588;2022-12-07T11:35:24;14.60;;;9.80;;
1925;SDS011;964;42.606;23.588;2022-12-07T11:38:03;15.23;;;8.40;;
1925;SDS011;964;42.606;23.588;2022-12-07T11:40:37;12.73;;;8.10;;
1925;SDS011;964;42.606;23.588;2022-12-07T11:43:09;16.97;;;9.30;;
1925;SDS011;964;42.606;23.588;2022-12-07T11:45:42;12.97;;;8.67;;
1925;SDS011;964;42.606;23.588;2022-12-07T11:48:11;14.03;;;9.20;;
1925;SDS011;964;42.606;23.588;2022-12-07T11:50:46;16.23;;;9.47;;
1925;SDS011;964;42.606;23.588;2022-12-07T11:53:17;16.57;;;9.57;;
1925;SDS011;964;42.606;23.588;2022-12-07T11:55:49;18.50;;;9.27;;
1925;SDS011;964;42.606;23.588;2022-12-07T12:01:18;17.10;;;9.60;;
1925;SDS011;964;42.606;23.588;2022-12-07T12:03:56;15.30;;;9.90;;
1925;SDS011;964;42.606;23.588;2022-12-07T12:06:30;16.67;;;10.23;;
1925;SDS011;964;42.606;23.588;2022-12-07T12:09:01;13.70;;;9.53;;
1925;SDS011;964;42.606;23.588;2022-12-07T12:11:37;17.77;;;12.43;;
1925;SDS011;964;42.606;23.588;2022-12-07T12:14:32;16.20;;;11.00;;
1925;SDS011;964;42.606;23.588;2022-12-07T12:17:25;18.53;;;11.43;;
1925;SDS011;964;42.606;23.588;2022-12-07T12:20:07;19.30;;;13.07;;
1925;SDS011;964;42.606;23.588;2022-12-07T12:22:47;19.17;;;11.57;;
1925;SDS011;964;42.606;23.588;2022-12-07T12:25:20;17.43;;;11.00;;
1925;SDS011;964;42.606;23.588;2022-12-07T12:27:50;17.07;;;10.10;;
1925;SDS011;964;42.606;23.588;2022-12-07T12:30:25;13.67;;;8.90;;
1925;SDS011;964;42.606;23.588;2022-12-07T12:33:01;13.23;;;9.13;;
1925;SDS011;964;42.606;23.588;2022-12-07T12:35:31;15.77;;;10.07;;
1925;SDS011;964;42.606;23.588;2022-12-07T12:40:58;15.27;;;8.67;;
1925;SDS011;964;42.606;23.588;2022-12-07T12:55:23;13.50;;;7.90;;
1925;SDS011;964;42.606;23.588;2022-12-07T12:58:22;16.30;;;9.23;;
1925;SDS011;964;42.606;23.588;2022-12-07T13:04:00;13.80;;;7.90;;
1925;SDS011;964;42.606;23.588;2022-12-07T13:06:33;10.67;;;7.97;;
1925;SDS011;964;42.606;23.588;2022-12-07T13:09:03;15.13;;;8.37;;
1925;SDS011;964;42.606;23.588;2022-12-07T13:11:33;13.87;;;7.80;;
1925;SDS011;964;42.606;23.588;2022-12-07T13:23:18;10.30;;;7.77;;
1925;SDS011;964;42.606;23.588;2022-12-07T13:25:51;12.00;;;7.37;;
1925;SDS011;964;42.606;23.588;2022-12-07T13:28:26;11.13;;;7.40;;
1925;SDS011;964;42.606;23.588;2022-12-07T13:31:00;15.37;;;9.03;;
1925;SDS011;964;42.606;23.588;2022-12-07T13:33:35;14.47;;;8.27;;
1925;SDS011;964;42.606;23.588;2022-12-07T13:36:02;17.47;;;9.37;;
1925;SDS011;964;42.606;23.588;2022-12-07T13:38:30;12.17;;;7.90;;
1925;SDS011;964;42.606;23.588;2022-12-07T13:41:01;21.20;;;10.67;;
1925;SDS011;964;42.606;23.588;2022-12-07T13:43:31;17.50;;;9.93;;
1925;SDS011;964;42.606;23.588;2022-12-07T13:45:59;17.23;;;9.30;;
1925;SDS011;964;42.606;23.588;2022-12-07T13:48:28;15.80;;;8.87;;
1925;SDS011;964;42.606;23.588;2022-12-07T13:50:59;16.90;;;9.13;;
1925;SDS011;964;42.606;23.588;2022-12-07T13:53:27;13.43;;;8.93;;
1925;SDS011;964;42.606;23.588;2022-12-07T13:55:55;15.93;;;9.60;;
1925;SDS011;964;42.606;23.588;2022-12-07T13:58:23;13.23;;;8.37;;
1925;SDS011;964;42.606;23.588;2022-12-07T14:00:52;13.50;;;9.80;;
1925;SDS011;964;42.606;23.588;2022-12-07T14:03:27;11.03;;;8.20;;
1925;SDS011;964;42.606;23.588;2022-12-07T14:06:13;13.93;;;8.00;;
1925;SDS011;964;42.606;23.588;2022-12-07T14:08:45;13.63;;;8.90;;
1925;SDS011;964;42.606;23.588;2022-12-07T14:11:14;12.77;;;7.90;;
1925;SDS011;964;42.606;23.588;2022-12-07T14:13:51;27.87;;;15.27;;
1925;SDS011;964;42.606;23.588;2022-12-07T14:16:25;31.00;;;15.90;;
1925;SDS011;964;42.606;23.588;2022-12-07T14:18:54;15.70;;;9.10;;
1925;SDS011;964;42.606;23.588;2022-12-07T14:21:22;21.73;;;10.20;;
1925;SDS011;964;42.606;23.588;2022-12-07T14:24:08;15.80;;;9.20;;
1925;SDS011;964;42.606;23.588;2022-12-07T14:26:37;28.80;;;13.37;;
1925;SDS011;964;42.606;23.588;2022-12-07T14:32:16;16.90;;;9.63;;
1925;SDS011;964;42.606;23.588;2022-12-07T14:34:54;21.47;;;12.73;;
1925;SDS011;964;42.606;23.588;2022-12-07T14:37:24;26.37;;;14.47;;
1925;SDS011;964;42.606;23.588;2022-12-07T14:39:52;21.53;;;11.87;;
1925;SDS011;964;42.606;23.588;2022-12-07T14:42:18;22.17;;;10.37;;
1925;SDS011;964;42.606;23.588;2022-12-07T14:44:46;27.50;;;15.03;;
1925;SDS011;964;42.606;23.588;2022-12-07T14:47:13;21.63;;;14.07;;
1925;SDS011;964;42.606;23.588;2022-12-07T14:49:41;20.20;;;11.53;;
1925;SDS011;964;42.606;23.588;2022-12-07T14:52:09;14.90;;;9.67;;
1925;SDS011;964;42.606;23.588;2022-12-07T14:54:40;16.00;;;10.23;;
1925;SDS011;964;42.606;23.588;2022-12-07T14:57:08;19.97;;;10.73;;
1925;SDS011;964;42.606;23.588;2022-12-07T14:59:35;20.03;;;9.60;;
1925;SDS011;964;42.606;23.588;2022-12-07T15:02:01;13.50;;;10.20;;
1925;SDS011;964;42.606;23.588;2022-12-07T15:04:29;17.80;;;9.20;;
1925;SDS011;964;42.606;23.588;2022-12-07T15:06:56;12.40;;;8.50;;
1925;SDS011;964;42.606;23.588;2022-12-07T15:09:23;30.70;;;13.53;;
1925;SDS011;964;42.606;23.588;2022-12-07T15:11:50;35.70;;;20.50;;
1925;SDS011;964;42.606;23.588;2022-12-07T15:14:17;23.87;;;12.67;;
1925;SDS011;964;42.606;23.588;2022-12-07T15:16:44;18.30;;;11.33;;
1925;SDS011;964;42.606;23.588;2022-12-07T15:19:11;16.30;;;8.37;;
1925;SDS011;964;42.606;23.588;2022-12-07T15:21:41;18.60;;;10.50;;
1925;SDS011;964;42.606;23.588;2022-12-07T15:24:08;19.67;;;7.40;;
1925;SDS011;964;42.606;23.588;2022-12-07T15:26:36;10.23;;;5.93;;
1925;SDS011;964;42.606;23.588;2022-12-07T15:29:03;14.13;;;8.03;;
1925;SDS011;964;42.606;23.588;2022-12-07T15:31:31;10.23;;;6.60;;
1925;SDS011;964;42.606;23.588;2022-12-07T15:33:58;25.43;;;14.33;;
1925;SDS011;964;42.606;23.588;2022-12-07T15:36:25;22.20;;;9.93;;
1925;SDS011;964;42.606;23.588;2022-12-07T15:38:55;16.07;;;8.40;;
1925;SDS011;964;42.606;23.588;2022-12-07T15:41:22;19.10;;;11.40;;
1925;SDS011;964;42.606;23.588;2022-12-07T15:43:49;20.67;;;10.00;;
1925;SDS011;964;42.606;23.588;2022-12-07T15:46:34;12.60;;;7.87;;